Time;durP1;ratioP1;P1;durP2;ratioP2;P2;SDS_P1;SDS_P2;PMS_P1;PMS_P2;Temp;Humidity;BMP_temperature;BMP_pressure;BME280_temperature;BME280_humidity;BME280_pressure;Samples;Min_cycle;Max_cycle;Signal;HPM_P1;HPM_P2
2021/08/02 00:01:32;;;;;;;8.80;7.10;;;;;;;15.18;98.39;98165.83;124763;1093;64271;-82
2021/08/02 00:04:06;;;;;;;9.87;7.30;;;;;;;15.17;98.23;98174.05;124756;1092;64260;-82
2021/08/02 00:06:46;;;;;;;8.47;7.67;;;;;;;15.12;97.97;98161.09;124738;1092;64421;-82
2021/08/02 00:09:14;;;;;;;;;;;;;;;15.14;98.07;98170.67;124776;1093;64279;-82
2021/08/02 00:11:55;;;;;;;8.43;7.63;;;;;;;15.14;98.10;98170.67;124800;1093;64294;-82
2021/08/02 00:14:22;;;;;;;7.97;7.17;;;;;;;15.12;98.02;98175.34;124790;1093;64360;-82
2021/08/02 00:16:51;;;;;;;7.33;6.50;;;;;;;15.14;98.09;98172.52;124731;1093;64294;-82
2021/08/02 00:19:19;;;;;;;9.33;7.20;;;;;;;15.16;97.92;98178.55;124747;1093;64291;-82
2021/08/02 00:21:47;;;;;;;11.47;6.90;;;;;;;15.17;97.94;98190.16;124676;1093;64380;-83
2021/08/02 00:24:16;;;;;;;7.43;6.77;;;;;;;15.17;98.19;98206.27;124788;1093;64290;-82
2021/08/02 00:26:43;;;;;;;8.40;7.63;;;;;;;15.16;97.70;98208.08;124844;1092;64287;-82
2021/08/02 00:29:11;;;;;;;9.00;7.33;;;;;;;15.19;98.09;98205.09;124803;1093;64198;-83
2021/08/02 00:31:38;;;;;;;11.27;8.33;;;;;;;15.21;98.20;98213.84;124792;1093;64437;-83
2021/08/02 00:34:05;;;;;;;9.33;7.70;;;;;;;15.22;98.03;98217.36;124786;1093;64191;-83
2021/08/02 00:36:44;;;;;;;9.40;8.50;;;;;;;15.23;98.01;98219.91;124760;1093;64281;-82
2021/08/02 00:39:39;;;;;;;9.13;8.23;;;;;;;15.27;98.28;98217.75;124746;1093;64293;-82
2021/08/02 00:42:27;;;;;;;10.73;9.70;;;;;;;15.34;98.28;98216.16;124755;1093;64290;-82
2021/08/02 00:45:01;;;;;;;10.27;9.27;;;;;;;15.39;98.02;98210.34;124740;1093;64275;-82
2021/08/02 00:47:37;;;;;;;10.77;9.53;;;;;;;15.39;97.91;98207.66;124805;1093;64366;-82
2021/08/02 00:50:09;;;;;;;12.77;9.43;;;;;;;15.41;98.03;98213.73;124788;1093;64277;-82
2021/08/02 00:52:40;;;;;;;13.57;10.20;;;;;;;15.40;97.57;98215.54;124792;1093;64274;-83
2021/08/02 00:55:08;;;;;;;10.00;9.10;;;;;;;15.40;97.50;98217.39;124699;1092;64310;-82
2021/08/02 00:57:37;;;;;;;10.70;9.60;;;;;;;15.43;97.73;98217.08;124735;1092;64441;-82
2021/08/02 01:00:12;;;;;;;12.93;11.67;;;;;;;15.43;97.70;98217.08;124767;1093;64258;-82
2021/08/02 01:02:42;;;;;;;10.57;9.77;;;;;;;15.44;97.67;98224.16;124712;1093;64263;-83
2021/08/02 01:05:13;;;;;;;12.03;10.73;;;;;;;15.41;97.41;98227.98;124768;1093;64370;-83
2021/08/02 01:08:04;;;;;;;13.17;11.87;;;;;;;15.40;97.69;98223.59;124765;1093;64281;-83
2021/08/02 01:10:34;;;;;;;14.57;12.77;;;;;;;15.40;97.58;98220.07;124685;1093;64373;-83
2021/08/02 01:13:08;;;;;;;12.67;11.50;;;;;;;15.38;97.13;98225.61;124800;1093;64280;-83
2021/08/02 01:15:35;;;;;;;14.10;12.63;;;;;;;15.40;97.11;98206.65;124788;1093;64298;-83
2021/08/02 01:18:02;;;;;;;14.80;13.37;;;;;;;15.39;97.12;98218.39;124776;1093;64374;-83
2021/08/02 01:20:31;;;;;;;15.70;13.90;;;;;;;15.38;97.15;98222.92;124717;1093;64381;-82
2021/08/02 01:23:04;;;;;;;16.67;14.93;;;;;;;15.41;97.46;98221.78;124745;1093;64281;-82
2021/08/02 01:25:34;;;;;;;14.57;13.17;;;;;;;15.37;97.02;98223.91;124739;1093;64251;-83
2021/08/02 01:28:13;;;;;;;16.60;15.00;;;;;;;15.35;97.06;98225.92;124769;1093;64277;-83
2021/08/02 01:30:48;;;;;;;15.57;14.00;;;;;;;15.37;97.36;98222.06;124806;1093;64252;-83
2021/08/02 01:33:18;;;;;;;16.23;14.90;;;;;;;15.34;96.94;98227.73;124723;1093;64269;-82
2021/08/02 01:35:45;;;;;;;;;;;;;;;15.33;97.48;98230.59;124731;1093;64367;-82
2021/08/02 01:38:13;;;;;;;15.57;14.07;;;;;;;15.31;97.22;98222.67;124749;1093;64318;-83
2021/08/02 01:40:41;;;;;;;15.80;14.05;;;;;;;15.32;97.32;98219.02;124776;1093;64263;-83
2021/08/02 01:43:08;;;;;;;15.40;14.00;;;;;;;15.32;97.28;98223.52;124710;1093;64281;-82
2021/08/02 01:45:51;;;;;;;14.33;13.13;;;;;;;15.31;97.32;98229.89;124778;1093;64300;-82
2021/08/02 01:48:28;;;;;;;13.83;12.70;;;;;;;15.32;97.55;98234.25;124764;1093;64229;-83
2021/08/02 01:51:21;;;;;;;15.05;13.55;;;;;;;15.32;97.27;98244.99;124697;1093;64402;-83
2021/08/02 01:53:59;;;;;;;14.50;13.00;;;;;;;15.37;97.84;98240.02;124746;1093;64249;-83
2021/08/02 01:56:49;;;;;;;13.30;12.20;;;;;;;15.38;97.51;98247.09;124779;1093;64263;-83
2021/08/02 01:59:22;;;;;;;13.75;12.65;;;;;;;15.37;97.55;98256.96;124759;1093;64223;-83
2021/08/02 02:02:03;;;;;;;13.00;11.90;;;;;;;15.36;97.59;98241.86;124770;1093;64405;-83
2021/08/02 02:04:37;;;;;;;12.90;11.70;;;;;;;15.36;97.52;98246.39;124738;1093;64375;-82
2021/08/02 02:07:08;;;;;;;12.53;11.30;;;;;;;15.36;97.30;98246.39;124737;1093;64231;-83
2021/08/02 02:09:38;;;;;;;11.77;10.60;;;;;;;15.35;97.35;98239.34;124812;1093;64282;-83
2021/08/02 02:12:06;;;;;;;11.80;10.60;;;;;;;15.31;97.16;98244.16;124829;1092;64248;-83
2021/08/02 02:14:37;;;;;;;11.30;10.10;;;;;;;15.29;97.16;98235.40;124726;1093;64327;-83
2021/08/02 02:17:10;;;;;;;11.93;9.67;;;;;;;15.24;97.20;98229.64;124820;1093;64300;-83
2021/08/02 02:19:42;;;;;;;13.23;10.40;;;;;;;15.24;97.57;98231.48;124761;1093;64279;-83
2021/08/02 02:22:10;;;;;;;10.20;9.20;;;;;;;15.25;97.57;98239.40;124807;1092;64280;-83
2021/08/02 02:24:39;;;;;;;11.00;9.70;;;;;;;15.24;97.61;98245.74;124725;1092;64296;-83
2021/08/02 02:27:07;;;;;;;11.00;9.87;;;;;;;15.27;97.49;98253.52;124760;1093;64370;-83
2021/08/02 02:29:35;;;;;;;10.50;9.40;;;;;;;15.25;97.42;98252.82;124758;1093;64421;-83
2021/08/02 02:32:05;;;;;;;11.27;10.10;;;;;;;15.25;97.42;98250.14;124747;1093;64248;-82
2021/08/02 02:34:36;;;;;;;10.47;9.47;;;;;;;15.28;97.49;98246.30;124769;1093;64787;-83
2021/08/02 02:37:06;;;;;;;10.05;9.05;;;;;;;15.27;97.73;98264.26;124791;1093;64294;-83
2021/08/02 02:39:35;;;;;;;9.00;8.20;;;;;;;15.29;97.56;98261.41;124822;1093;64357;-83
2021/08/02 02:42:03;;;;;;;9.07;8.17;;;;;;;15.28;97.69;98262.41;124841;1093;64271;-82
2021/08/02 02:44:30;;;;;;;9.60;7.90;;;;;;;15.27;97.65;98276.81;124828;1093;64278;-83
2021/08/02 02:46:59;;;;;;;11.65;8.90;;;;;;;15.25;97.72;98270.77;124771;1093;64284;-86
2021/08/02 02:49:29;;;;;;;9.50;8.23;;;;;;;15.27;97.94;98277.68;124784;1093;64363;-83
2021/08/02 02:51:57;;;;;;;;;;;;;;;15.27;97.54;98279.49;124754;1093;64279;-82
2021/08/02 02:54:27;;;;;;;7.70;6.87;;;;;;;15.24;97.50;98272.59;124778;1093;64326;-82
2021/08/02 02:56:56;;;;;;;9.97;7.30;;;;;;;15.22;97.67;98266.55;124824;1093;64279;-82
2021/08/02 02:59:23;;;;;;;8.67;6.47;;;;;;;15.21;97.39;98269.37;124771;1093;64297;-82
2021/08/02 03:01:51;;;;;;;7.63;6.77;;;;;;;15.18;97.23;98269.67;124767;1093;64290;-82
2021/08/02 03:04:28;;;;;;;7.83;6.27;;;;;;;15.20;97.62;98268.53;124735;1093;64274;-82
2021/08/02 03:06:55;;;;;;;6.43;5.80;;;;;;;15.21;97.30;98278.27;124756;1093;64223;-82
2021/08/02 03:09:27;;;;;;;6.77;4.67;;;;;;;15.21;97.60;98277.42;124709;1093;64278;-82
2021/08/02 03:11:54;;;;;;;5.65;4.70;;;;;;;15.21;97.31;98278.27;124756;1093;64277;-86
2021/08/02 03:14:22;;;;;;;6.33;5.13;;;;;;;15.23;97.37;98276.28;124749;1093;64294;-84
2021/08/02 03:16:49;;;;;;;7.90;5.07;;;;;;;15.28;97.43;98294.63;124692;1093;64312;-83
2021/08/02 03:19:16;;;;;;;6.77;4.87;;;;;;;15.29;97.53;98296.30;124726;1093;64197;-83
2021/08/02 03:21:44;;;;;;;5.00;4.37;;;;;;;15.29;96.95;98290.94;124712;1092;64763;-83
2021/08/02 03:24:18;;;;;;;4.90;4.40;;;;;;;15.26;96.99;98297.45;124767;1093;64303;-83
2021/08/02 03:26:56;;;;;;;4.90;4.40;;;;;;;15.23;97.02;98291.55;124798;1093;64299;-83
2021/08/02 03:29:43;;;;;;;5.03;4.30;;;;;;;15.22;96.71;98297.89;124778;1093;64431;-83
2021/08/02 03:32:14;;;;;;;7.07;4.70;;;;;;;15.20;96.93;98303.42;124757;1093;64379;-83
2021/08/02 03:34:44;;;;;;;6.63;3.97;;;;;;;15.20;96.56;98316.84;124724;1093;64279;-83
2021/08/02 03:37:15;;;;;;;5.05;3.90;;;;;;;15.20;96.64;98311.48;124809;1093;64247;-83
2021/08/02 03:39:44;;;;;;;6.57;3.97;;;;;;;15.20;96.35;98316.84;124742;1093;64305;-83
2021/08/02 03:42:13;;;;;;;4.50;3.08;;;;;;;15.20;96.54;98322.21;124754;1093;64271;-83
2021/08/02 03:44:40;;;;;;;5.37;4.00;;;;;;;15.20;96.54;98326.74;124793;1093;64291;-83
2021/08/02 03:47:08;;;;;;;5.17;3.80;;;;;;;15.18;96.49;98321.51;124775;1093;64286;-83
2021/08/02 03:49:36;;;;;;;5.87;4.00;;;;;;;15.20;96.55;98319.53;124778;1093;64248;-83
2021/08/02 03:52:03;;;;;;;7.93;3.80;;;;;;;15.23;96.40;98318.39;124820;1092;64279;-83
2021/08/02 03:54:31;;;;;;;5.87;4.20;;;;;;;15.22;96.37;98330.97;124745;1093;64379;-83
2021/08/02 03:57:00;;;;;;;4.73;4.33;;;;;;;15.24;96.62;98328.12;124823;1093;64293;-83
2021/08/02 03:59:28;;;;;;;4.00;3.58;;;;;;;15.25;96.79;98327.14;124767;1093;64278;-83
2021/08/02 04:01:56;;;;;;;6.40;3.83;;;;;;;15.26;96.61;98335.03;124762;1093;64351;-83
2021/08/02 04:04:23;;;;;;;7.07;4.33;;;;;;;15.28;96.72;98330.36;124777;1093;64290;-83
2021/08/02 04:06:50;;;;;;;6.47;4.13;;;;;;;15.33;96.46;98335.30;124683;1093;64335;-83
2021/08/02 04:09:17;;;;;;;7.30;4.00;;;;;;;15.35;96.46;98336.00;124764;1093;64353;-83
2021/08/02 04:11:45;;;;;;;6.90;4.30;;;;;;;15.41;96.61;98335.39;124779;1093;64293;-83
2021/08/02 04:14:13;;;;;;;4.50;4.00;;;;;;;15.44;96.48;98340.45;124792;1093;64277;-83
2021/08/02 04:16:40;;;;;;;6.77;4.10;;;;;;;15.49;96.49;98340.02;124769;1093;64357;-83
2021/08/02 04:19:07;;;;;;;5.00;4.50;;;;;;;15.53;96.01;98338.70;124781;1093;64412;-84
2021/08/02 04:21:35;;;;;;;4.90;4.37;;;;;;;15.56;95.90;98347.33;124800;1093;64382;-83
2021/08/02 04:24:03;;;;;;;5.67;4.93;;;;;;;15.58;96.24;98349.84;124716;1093;64274;-83
2021/08/02 04:26:30;;;;;;;7.63;4.67;;;;;;;15.64;96.00;98351.08;124694;1093;64354;-84
2021/08/02 04:28:57;;;;;;;5.87;4.10;;;;;;;15.68;95.83;98352.48;124712;1093;64283;-83
2021/08/02 04:31:30;;;;;;;4.87;4.20;;;;;;;15.75;96.16;98357.13;124735;1093;64274;-84
2021/08/02 04:33:57;;;;;;;8.93;4.90;;;;;;;15.83;96.14;98358.23;124702;1093;64350;-84
2021/08/02 04:36:26;;;;;;;5.00;4.13;;;;;;;15.89;95.95;98362.98;124779;1093;64296;-83
2021/08/02 04:38:53;;;;;;;6.33;4.70;;;;;;;15.90;95.65;98365.50;124858;1093;64280;-83
2021/08/02 04:41:20;;;;;;;6.40;5.30;;;;;;;15.92;95.70;98370.73;124713;1093;64294;-84
2021/08/02 04:43:47;;;;;;;4.80;4.30;;;;;;;15.95;95.49;98373.95;124758;1093;64408;-84
2021/08/02 04:46:15;;;;;;;4.97;4.50;;;;;;;15.98;95.66;98373.68;124786;1093;64275;-84
2021/08/02 04:48:42;;;;;;;6.07;4.57;;;;;;;16.03;95.95;98375.89;124756;1093;64364;-83
2021/08/02 04:51:09;;;;;;;6.50;4.83;;;;;;;16.02;95.79;98375.05;124745;1093;64282;-84
2021/08/02 04:53:37;;;;;;;6.83;4.10;;;;;;;16.03;95.43;98383.95;124770;1093;64255;-83
2021/08/02 04:56:05;;;;;;;8.27;4.23;;;;;;;16.05;95.66;98375.75;124765;1093;64310;-83
2021/08/02 04:58:32;;;;;;;4.07;3.50;;;;;;;16.10;95.53;98376.14;124697;1093;64382;-83
2021/08/02 05:00:59;;;;;;;4.63;4.23;;;;;;;16.16;95.71;98386.27;124711;1093;64293;-84
2021/08/02 05:03:26;;;;;;;7.00;4.10;;;;;;;16.20;95.39;98384.98;124740;1093;64229;-84
2021/08/02 05:05:54;;;;;;;4.90;4.17;;;;;;;16.27;95.43;98386.03;124774;1093;64196;-83
2021/08/02 05:08:22;;;;;;;4.43;3.63;;;;;;;16.32;94.93;98385.58;124768;1093;64427;-84
2021/08/02 05:10:50;;;;;;;4.20;3.20;;;;;;;16.32;95.15;98391.79;124787;1093;64692;-84
2021/08/02 05:13:17;;;;;;;4.47;3.60;;;;;;;16.28;95.15;98390.42;124750;1093;64274;-83
2021/08/02 05:15:44;;;;;;;5.70;3.47;;;;;;;16.31;95.19;98391.97;124812;1093;64197;-84
2021/08/02 05:18:13;;;;;;;3.83;3.50;;;;;;;16.41;94.92;98398.95;124751;1093;64217;-84
2021/08/02 05:20:42;;;;;;;4.67;3.17;;;;;;;16.48;94.77;98401.02;124695;1093;64347;-83
2021/08/02 05:23:09;;;;;;;4.27;2.90;;;;;;;16.50;94.68;98391.79;124736;1093;64373;-83
2021/08/02 05:25:36;;;;;;;3.13;2.80;;;;;;;16.55;94.18;98404.78;124810;1093;64296;-83
2021/08/02 05:28:04;;;;;;;4.00;2.70;;;;;;;16.58;93.87;98405.30;124728;1093;64271;-83
2021/08/02 05:30:31;;;;;;;2.47;2.27;;;;;;;16.64;93.94;98409.22;124761;1093;64149;-84
2021/08/02 05:32:58;;;;;;;4.17;2.97;;;;;;;16.70;93.69;98418.53;124683;1093;64361;-84
2021/08/02 05:35:26;;;;;;;4.03;2.77;;;;;;;16.73;93.88;98418.22;124742;1093;64338;-83
2021/08/02 05:37:54;;;;;;;3.43;2.73;;;;;;;16.70;93.79;98414.00;124764;1093;64260;-83
2021/08/02 05:40:21;;;;;;;3.53;2.73;;;;;;;16.67;93.54;98420.53;124752;1093;64293;-83
2021/08/02 05:42:49;;;;;;;3.93;2.57;;;;;;;16.65;93.36;98416.30;124729;1093;64277;-84
2021/08/02 05:45:16;;;;;;;3.00;2.33;;;;;;;16.61;93.44;98415.78;124763;1093;64324;-84
2021/08/02 05:47:44;;;;;;;2.37;2.17;;;;;;;16.52;93.34;98423.92;124801;1093;64408;-81
2021/08/02 05:50:11;;;;;;;3.00;2.30;;;;;;;16.50;93.59;98426.76;124714;1093;64290;-83
2021/08/02 05:52:41;;;;;;;2.67;1.97;;;;;;;16.43;93.67;98434.61;124758;1093;64277;-83
2021/08/02 05:55:09;;;;;;;3.00;2.33;;;;;;;16.38;93.41;98436.08;124764;1093;64287;-84
2021/08/02 05:57:36;;;;;;;3.47;2.37;;;;;;;16.34;93.90;98440.89;124726;1093;64271;-84
2021/08/02 06:00:05;;;;;;;2.47;2.00;;;;;;;16.32;93.84;98437.50;124722;1094;64351;-84
2021/08/02 06:02:33;;;;;;;2.50;2.30;;;;;;;16.35;94.25;98447.98;124785;1093;64316;-84
2021/08/02 06:05:00;;;;;;;2.83;2.17;;;;;;;16.36;93.46;98446.97;124755;1093;64367;-83
2021/08/02 06:07:27;;;;;;;5.00;2.13;;;;;;;16.34;93.41;98448.96;124816;1092;64284;-84
2021/08/02 06:09:56;;;;;;;2.53;2.33;;;;;;;16.34;93.25;98448.13;124781;1093;64753;-84
2021/08/02 06:12:23;;;;;;;2.20;2.05;;;;;;;16.39;93.16;98448.52;124734;1093;64249;-84
2021/08/02 06:14:50;;;;;;;2.60;2.40;;;;;;;16.43;93.05;98453.44;124739;1093;64287;-84
2021/08/02 06:17:17;;;;;;;2.47;2.27;;;;;;;16.49;92.96;98453.83;124752;1093;64194;-84
2021/08/02 06:19:44;;;;;;;2.63;2.40;;;;;;;16.51;92.56;98463.44;124804;1093;64326;-84
2021/08/02 06:22:12;;;;;;;2.10;1.97;;;;;;;16.58;92.52;98460.96;124708;1093;64284;-84
2021/08/02 06:24:42;;;;;;;2.43;2.23;;;;;;;16.64;92.40;98458.52;124771;1092;64248;-84
2021/08/02 06:27:09;;;;;;;3.25;2.40;;;;;;;16.73;92.32;98459.42;124765;1093;64316;-84
2021/08/02 06:29:36;;;;;;;2.00;1.90;;;;;;;16.86;91.75;98462.59;124774;1093;64248;-84
2021/08/02 06:32:05;;;;;;;3.10;2.50;;;;;;;16.91;91.99;98455.91;124664;1093;64338;-84
2021/08/02 06:34:32;;;;;;;3.35;2.40;;;;;;;16.95;91.91;98466.19;124785;1093;64418;-84
2021/08/02 06:36:59;;;;;;;4.10;2.30;;;;;;;16.99;91.46;98467.58;124773;1093;64412;-83
2021/08/02 06:39:27;;;;;;;2.50;2.30;;;;;;;17.02;91.16;98463.73;124748;1093;64198;-83
2021/08/02 06:41:54;;;;;;;3.70;2.10;;;;;;;17.11;91.36;98469.03;124790;1093;64239;-83
2021/08/02 06:44:21;;;;;;;2.47;2.27;;;;;;;17.20;91.04;98463.70;124754;1093;64287;-83
2021/08/02 06:46:49;;;;;;;3.57;2.30;;;;;;;17.28;91.01;98464.59;124708;1093;64463;-83
2021/08/02 06:49:16;;;;;;;3.07;2.73;;;;;;;17.37;90.49;98468.17;124702;1093;64332;-83
2021/08/02 06:51:43;;;;;;;4.17;2.50;;;;;;;17.49;90.44;98471.45;124816;1093;64271;-84
2021/08/02 06:54:10;;;;;;;2.13;2.03;;;;;;;17.61;89.74;98477.40;124814;1093;64198;-82
2021/08/02 06:56:37;;;;;;;3.20;2.47;;;;;;;17.67;89.51;98483.01;124733;1093;64271;-82
2021/08/02 06:59:05;;;;;;;2.27;2.07;;;;;;;17.73;89.02;98481.52;124709;1093;64501;-82
2021/08/02 07:01:32;;;;;;;2.23;2.10;;;;;;;17.82;89.30;98482.42;124723;1093;64341;-82
2021/08/02 07:03:59;;;;;;;2.70;1.87;;;;;;;17.90;88.87;98488.69;124776;1093;64347;-82
2021/08/02 07:06:26;;;;;;;3.33;2.03;;;;;;;18.02;88.75;98488.42;124744;1093;64294;-82
2021/08/02 07:08:56;;;;;;;2.27;1.90;;;;;;;18.14;88.10;98481.70;124774;1092;64297;-82
2021/08/02 07:11:25;;;;;;;2.00;1.90;;;;;;;18.31;87.66;98479.92;124734;1093;64297;-82
2021/08/02 07:13:54;;;;;;;2.67;2.40;;;;;;;18.56;87.69;98478.10;124740;1093;64385;-82
2021/08/02 07:16:22;;;;;;;2.63;2.20;;;;;;;18.77;87.53;98474.95;124765;1093;64383;-82
2021/08/02 07:18:51;;;;;;;2.37;2.07;;;;;;;18.94;86.59;98473.13;124708;1093;64271;-82
2021/08/02 07:21:22;;;;;;;2.27;2.17;;;;;;;19.16;86.67;98485.09;124802;1093;64300;-82
2021/08/02 07:23:50;;;;;;;3.43;2.40;;;;;;;19.33;85.39;98475.97;124678;1093;64251;-82
2021/08/02 07:26:17;;;;;;;3.20;2.53;;;;;;;19.44;85.15;98482.88;124715;1092;64431;-82
2021/08/02 07:28:44;;;;;;;2.67;2.33;;;;;;;19.39;84.26;98488.78;124732;1093;64293;-82
2021/08/02 07:31:12;;;;;;;4.50;2.10;;;;;;;19.33;84.77;98486.77;124774;1093;64249;-82
2021/08/02 07:33:39;;;;;;;2.50;2.30;;;;;;;19.24;84.41;98491.33;124729;1093;64282;-82
2021/08/02 07:36:09;;;;;;;3.15;2.40;;;;;;;19.07;84.54;98495.91;124702;1093;64306;-82
2021/08/02 07:38:38;;;;;;;2.40;2.20;;;;;;;18.94;84.60;98500.13;124743;1093;64421;-82
2021/08/02 07:41:05;;;;;;;3.53;3.03;;;;;;;18.76;84.15;98508.38;124778;1093;64273;-82
2021/08/02 07:43:32;;;;;;;2.67;2.40;;;;;;;18.62;84.93;98505.28;124779;1093;64771;-82
2021/08/02 07:45:59;;;;;;;2.30;2.10;;;;;;;18.53;84.63;98513.52;124779;1093;64297;-81
2021/08/02 07:48:27;;;;;;;3.50;2.67;;;;;;;18.49;85.40;98513.02;124726;1093;64291;-82
2021/08/02 07:50:54;;;;;;;4.50;2.63;;;;;;;18.47;85.12;98530.38;124756;1093;64279;-82
2021/08/02 07:53:21;;;;;;;3.40;2.50;;;;;;;18.42;84.94;98531.70;124742;1093;64287;-82
2021/08/02 07:55:49;;;;;;;3.13;2.83;;;;;;;18.44;85.25;98528.86;124741;1093;64230;-82
2021/08/02 07:58:16;;;;;;;2.73;2.53;;;;;;;18.53;84.31;98527.85;124714;1093;64303;-82
2021/08/02 08:00:43;;;;;;;3.27;2.60;;;;;;;18.72;84.09;98533.97;124668;1093;64293;-81
2021/08/02 08:03:12;;;;;;;3.83;2.73;;;;;;;18.95;82.82;98532.34;124739;1093;64383;-83
2021/08/02 08:05:41;;;;;;;3.13;2.60;;;;;;;19.22;83.54;98538.44;124767;1093;64287;-82
2021/08/02 08:08:08;;;;;;;3.47;2.70;;;;;;;19.34;83.12;98536.25;124886;1093;64693;-82
2021/08/02 08:10:35;;;;;;;6.70;3.57;;;;;;;19.37;83.63;98544.85;124830;1093;64294;-83
2021/08/02 08:13:03;;;;;;;4.15;3.20;;;;;;;19.41;83.01;98548.91;124758;1093;64510;-81
2021/08/02 08:15:30;;;;;;;3.70;3.40;;;;;;;19.45;82.36;98549.41;124712;1092;64379;-81
2021/08/02 08:17:57;;;;;;;3.63;3.20;;;;;;;19.58;81.06;98547.02;124762;1093;64274;-82
2021/08/02 08:20:25;;;;;;;4.53;3.10;;;;;;;19.71;81.14;98541.97;124734;1093;64270;-82
2021/08/02 08:22:53;;;;;;;5.97;3.60;;;;;;;19.87;81.29;98542.95;124678;1093;64277;-82
2021/08/02 08:25:20;;;;;;;4.43;3.60;;;;;;;20.00;81.35;98542.41;124703;1093;64724;-83
2021/08/02 08:27:49;;;;;;;5.77;4.17;;;;;;;20.22;81.20;98548.91;124713;1093;64299;-83
2021/08/02 08:30:19;;;;;;;4.38;3.75;;;;;;;20.44;80.49;98545.45;124795;1093;64280;-81
2021/08/02 08:32:46;;;;;;;;;;;;;;;20.66;80.17;98535.70;124829;1093;64244;-83
2021/08/02 08:35:14;;;;;;;3.95;3.65;;;;;;;20.81;79.84;98541.21;124771;1093;64290;-82
2021/08/02 08:37:42;;;;;;;4.13;3.80;;;;;;;21.05;80.27;98535.61;124712;1092;64425;-82
2021/08/02 08:40:10;;;;;;;3.90;3.60;;;;;;;21.40;79.69;98529.77;124737;1092;64271;-82
2021/08/02 08:42:40;;;;;;;3.83;3.47;;;;;;;21.55;78.96;98543.37;124809;1093;64198;-81
2021/08/02 08:45:09;;;;;;;4.33;4.03;;;;;;;21.76;78.78;98534.52;124808;1093;64280;-82
2021/08/02 08:47:36;;;;;;;4.93;4.07;;;;;;;22.05;78.71;98541.83;124817;1093;64314;-81
2021/08/02 08:50:08;;;;;;;4.23;3.57;;;;;;;22.11;76.55;98535.64;124747;1093;64326;-81
2021/08/02 08:52:37;;;;;;;4.13;3.23;;;;;;;22.29;76.22;98538.84;124746;1091;64296;-82
2021/08/02 08:55:06;;;;;;;3.67;3.17;;;;;;;22.54;76.30;98544.80;124737;1093;64194;-82
2021/08/02 08:57:34;;;;;;;3.80;3.57;;;;;;;22.63;75.29;98536.55;124822;1093;64294;-81
2021/08/02 09:00:02;;;;;;;5.03;3.40;;;;;;;22.51;74.69;98539.77;124729;1093;64220;-81
2021/08/02 09:02:29;;;;;;;5.57;4.17;;;;;;;22.34;74.76;98538.28;124737;1093;64308;-83
2021/08/02 09:04:59;;;;;;;3.80;3.50;;;;;;;22.53;74.78;98544.98;124749;1093;64258;-82
2021/08/02 09:07:35;;;;;;;4.17;3.87;;;;;;;22.56;73.89;98540.03;124800;1094;64651;-80
2021/08/02 09:10:06;;;;;;;5.10;4.60;;;;;;;22.68;73.17;98540.36;124771;1093;64233;-81
2021/08/02 09:12:33;;;;;;;4.90;4.40;;;;;;;23.02;72.65;98538.88;124731;1093;64364;-81
2021/08/02 09:15:06;;;;;;;4.40;4.10;;;;;;;23.44;73.13;98529.86;124683;1093;64305;-81
2021/08/02 09:17:38;;;;;;;5.20;4.80;;;;;;;23.95;71.54;98536.95;124750;1093;64357;-81
2021/08/02 09:20:19;;;;;;;4.67;4.27;;;;;;;24.11;69.42;98527.61;124736;1093;64386;-81
2021/08/02 09:22:48;;;;;;;4.13;3.73;;;;;;;24.19;70.04;98526.61;124731;1093;64278;-80
2021/08/02 09:25:21;;;;;;;4.87;4.37;;;;;;;24.52;69.15;98524.91;124831;1093;64264;-80
2021/08/02 09:27:50;;;;;;;4.70;4.30;;;;;;;24.62;68.49;98523.67;124752;1093;64417;-80
2021/08/02 09:30:25;;;;;;;4.98;4.68;;;;;;;24.71;67.44;98528.74;124827;1093;64280;-81
2021/08/02 09:33:09;;;;;;;5.27;4.87;;;;;;;24.66;66.06;98522.23;124820;1093;64313;-81
2021/08/02 09:35:39;;;;;;;5.20;4.73;;;;;;;24.48;65.96;98525.52;124736;1093;64313;-81
2021/08/02 09:38:13;;;;;;;4.50;4.20;;;;;;;24.33;66.64;98525.66;124801;1094;64294;-81
2021/08/02 09:40:49;;;;;;;4.00;3.70;;;;;;;24.15;65.95;98531.63;124770;1092;64452;-81
2021/08/02 09:43:22;;;;;;;4.33;4.03;;;;;;;23.94;65.44;98531.72;124740;1093;64274;-81
2021/08/02 09:45:52;;;;;;;5.20;3.75;;;;;;;23.53;66.37;98529.71;124744;1093;64300;-81
2021/08/02 09:48:32;;;;;;;4.20;3.90;;;;;;;23.06;66.55;98540.16;124771;1093;64332;-81
2021/08/02 09:51:12;;;;;;;4.20;3.90;;;;;;;22.76;66.70;98542.13;124791;1092;64353;-81
2021/08/02 09:53:44;;;;;;;4.58;4.15;;;;;;;22.52;67.49;98540.59;124743;1093;64456;-81
2021/08/02 09:56:19;;;;;;;4.27;3.97;;;;;;;22.30;68.08;98543.26;124799;1093;64402;-81
2021/08/02 09:58:47;;;;;;;4.70;4.30;;;;;;;22.07;67.61;98547.91;124787;1093;64340;-81
2021/08/02 10:01:19;;;;;;;4.50;4.07;;;;;;;21.94;67.29;98556.70;124771;1093;64277;-81
2021/08/02 10:03:47;;;;;;;5.13;4.50;;;;;;;21.99;68.52;98556.98;124763;1093;64294;-81
2021/08/02 10:06:16;;;;;;;4.45;3.75;;;;;;;22.11;68.90;98546.49;124698;1093;64294;-81
2021/08/02 10:08:44;;;;;;;4.07;3.87;;;;;;;22.29;68.58;98554.30;124816;1093;64612;-81
2021/08/02 10:11:11;;;;;;;3.50;3.30;;;;;;;22.32;67.33;98556.63;124792;1093;64296;-81
2021/08/02 10:13:43;;;;;;;3.80;3.50;;;;;;;22.47;66.81;98560.17;124832;1093;64269;-81
2021/08/02 10:16:16;;;;;;;3.20;3.00;;;;;;;22.74;67.54;98555.89;124708;1093;64332;-80
2021/08/02 10:18:51;;;;;;;2.67;2.30;;;;;;;22.90;65.91;98551.26;124699;1093;64277;-80
2021/08/02 10:21:20;;;;;;;2.60;2.40;;;;;;;22.91;65.77;98559.23;124813;1093;64342;-80
2021/08/02 10:23:48;;;;;;;2.97;2.77;;;;;;;22.85;65.58;98559.98;124804;1093;64293;-81
2021/08/02 10:26:20;;;;;;;3.47;3.27;;;;;;;22.76;65.45;98559.27;124744;1093;64293;-80
2021/08/02 10:28:55;;;;;;;4.57;4.17;;;;;;;22.73;66.48;98556.94;124807;1092;64230;-82
2021/08/02 10:31:26;;;;;;;6.13;5.53;;;;;;;22.76;66.72;98561.14;124735;1093;64286;-82
2021/08/02 10:33:55;;;;;;;6.70;5.20;;;;;;;22.84;66.36;98561.02;124776;1093;64191;-82
2021/08/02 10:36:24;;;;;;;6.75;6.18;;;;;;;22.80;66.75;98562.43;124777;1092;64303;-82
2021/08/02 10:38:53;;;;;;;7.40;6.80;;;;;;;22.79;66.56;98558.88;124846;1093;64274;-82
2021/08/02 10:41:32;;;;;;;5.50;5.00;;;;;;;22.95;67.25;98560.51;124811;1093;64271;-82
2021/08/02 10:44:20;;;;;;;4.70;4.30;;;;;;;22.99;66.08;98566.45;124723;1093;64434;-82
2021/08/02 10:46:48;;;;;;;4.77;4.40;;;;;;;22.91;66.40;98559.23;124697;1093;64277;-82
2021/08/02 10:49:16;;;;;;;5.90;5.40;;;;;;;22.88;66.71;98562.34;124699;1092;64389;-82
2021/08/02 10:51:55;;;;;;;9.03;8.10;;;;;;;23.06;66.87;98567.34;124707;1093;64300;-82
2021/08/02 10:54:23;;;;;;;8.87;6.97;;;;;;;23.19;66.72;98569.36;124743;1093;64244;-82
2021/08/02 10:56:52;;;;;;;6.77;6.07;;;;;;;23.43;66.97;98563.55;124739;1093;64452;-82
2021/08/02 10:59:20;;;;;;;3.77;3.40;;;;;;;23.68;66.11;98554.11;124821;1093;64316;-82
2021/08/02 11:01:50;;;;;;;2.60;2.40;;;;;;;23.85;64.99;98561.78;124787;1093;64274;-82
2021/08/02 11:04:18;;;;;;;;;;;;;;;24.02;64.03;98562.34;124799;1093;64373;-82
2021/08/02 11:06:47;;;;;;;3.70;3.40;;;;;;;24.03;64.31;98555.00;124749;1093;64275;-82
2021/08/02 11:09:15;;;;;;;3.18;2.98;;;;;;;24.08;63.02;98556.08;124781;1093;64274;-82
2021/08/02 11:11:42;;;;;;;3.70;3.40;;;;;;;24.12;63.55;98559.27;124755;1093;64343;-82
2021/08/02 11:14:17;;;;;;;5.70;5.13;;;;;;;24.06;64.14;98555.44;124767;1093;64290;-82
2021/08/02 11:16:52;;;;;;;7.03;5.57;;;;;;;23.93;64.02;98558.07;124770;1093;64214;-82
2021/08/02 11:19:26;;;;;;;4.53;4.10;;;;;;;23.70;63.83;98554.73;124726;1093;64235;-82
2021/08/02 11:22:00;;;;;;;4.77;4.40;;;;;;;23.50;63.94;98569.02;124695;1093;64376;-82
2021/08/02 11:24:34;;;;;;;3.20;3.00;;;;;;;23.48;63.96;98570.26;124852;1093;64319;-82
2021/08/02 11:27:04;;;;;;;2.80;2.60;;;;;;;23.33;63.69;98563.03;124784;1093;64224;-82
2021/08/02 11:29:36;;;;;;;8.90;8.20;;;;;;;23.33;63.47;98564.88;124783;1092;64233;-82
2021/08/02 11:32:11;;;;;;;5.60;5.10;;;;;;;23.28;63.68;98572.81;124812;1093;64210;-82
2021/08/02 11:34:41;;;;;;;3.43;3.23;;;;;;;23.23;63.57;98571.50;124761;1093;64300;-82
2021/08/02 11:37:14;;;;;;;4.03;3.67;;;;;;;23.19;64.71;98564.76;124795;1093;64264;-82